Strona główna
METAR-TAF:

METAR-TAF

Lotnisko :

Weipa, Australia

Szerokość geograficzna: 12-40-43S, Długość geograficzna: 141-55-31E, wysokość: 19 m

Aktualna obserwacja pogody

Raport powstał 20 minut temu, godzina 17:00 UTC
Wiatr 1 kt od południowo-południowy wschód
Temperatura 22°C
Wilgotność 83%
Ciśnienie 1012 hPa
Widzialność 10 km lub więcej

METAR: YBWP 121700Z AUTO 16001KT 9999 // NCD 22/19 Q1012

czas: 03:20 (17:20 UTC)


TAF: brakujący

Obserwacja i prognoza pogody dla ponad 4000 lotnisk (raport METAR i TAF).

Dostępne stacje oznaczono żółtymi i czerwonymi punktami na mapie.

Najedź kursorem aby zobaczyć nazwę stacji.

Kliknij aby zobaczyć obserwacje i prognozy pogody.

Aby zmienić mapę: kliknij na zielony przycisk z czarnym krzyżykiem, aby powiększyć; na zielony przycisk z myślnikiem, aby pomniejszyć; na zielone strzałki, aby przejść do map sąsiednich.


METAR-TAF: